sensor_id;sensor_type;location;lat;lon;timestamp;temperature;humidity
68924;DHT22;55961;52.156;20.942;2024-02-23T00:01:17;8.10;82.50
68924;DHT22;55961;52.156;20.942;2024-02-23T00:03:43;8.10;82.40
68924;DHT22;55961;52.156;20.942;2024-02-23T00:06:09;8.10;82.50
68924;DHT22;55961;52.156;20.942;2024-02-23T00:08:35;8.10;82.60
68924;DHT22;55961;52.156;20.942;2024-02-23T00:11:01;8.10;82.50
68924;DHT22;55961;52.156;20.942;2024-02-23T00:13:27;8.10;82.60
68924;DHT22;55961;52.156;20.942;2024-02-23T00:15:53;8.10;82.50
68924;DHT22;55961;52.156;20.942;2024-02-23T00:18:19;8.10;82.70
68924;DHT22;55961;52.156;20.942;2024-02-23T00:20:47;8.10;82.80
68924;DHT22;55961;52.156;20.942;2024-02-23T00:23:14;8.10;82.80
68924;DHT22;55961;52.156;20.942;2024-02-23T00:25:54;8.10;82.60
68924;DHT22;55961;52.156;20.942;2024-02-23T00:28:19;8.10;82.70
68924;DHT22;55961;52.156;20.942;2024-02-23T00:30:45;8.10;82.70
68924;DHT22;55961;52.156;20.942;2024-02-23T00:33:11;8.10;82.50
68924;DHT22;55961;52.156;20.942;2024-02-23T00:35:37;8.10;82.50
68924;DHT22;55961;52.156;20.942;2024-02-23T00:38:03;8.10;82.60
68924;DHT22;55961;52.156;20.942;2024-02-23T00:40:30;8.10;82.80
68924;DHT22;55961;52.156;20.942;2024-02-23T00:42:55;8.10;82.80
68924;DHT22;55961;52.156;20.942;2024-02-23T00:45:22;8.10;82.80
68924;DHT22;55961;52.156;20.942;2024-02-23T00:47:48;8.10;82.90
68924;DHT22;55961;52.156;20.942;2024-02-23T00:50:14;8.10;82.90
68924;DHT22;55961;52.156;20.942;2024-02-23T00:52:40;8.10;83.00
68924;DHT22;55961;52.156;20.942;2024-02-23T00:55:07;8.10;83.10
68924;DHT22;55961;52.156;20.942;2024-02-23T00:57:34;8.10;83.20
68924;DHT22;55961;52.156;20.942;2024-02-23T01:00:02;8.10;83.00
68924;DHT22;55961;52.156;20.942;2024-02-23T01:02:31;8.10;83.00
68924;DHT22;55961;52.156;20.942;2024-02-23T01:04:59;8.10;82.90
68924;DHT22;55961;52.156;20.942;2024-02-23T01:07:25;8.20;82.90
68924;DHT22;55961;52.156;20.942;2024-02-23T01:09:51;8.20;83.00
68924;DHT22;55961;52.156;20.942;2024-02-23T01:12:17;8.20;83.10
68924;DHT22;55961;52.156;20.942;2024-02-23T01:14:43;8.10;83.10
68924;DHT22;55961;52.156;20.942;2024-02-23T01:17:09;8.20;82.90
68924;DHT22;55961;52.156;20.942;2024-02-23T01:19:35;8.20;82.90
68924;DHT22;55961;52.156;20.942;2024-02-23T01:22:01;8.20;82.90
68924;DHT22;55961;52.156;20.942;2024-02-23T01:24:27;8.20;83.00
68924;DHT22;55961;52.156;20.942;2024-02-23T01:26:55;8.20;83.00
68924;DHT22;55961;52.156;20.942;2024-02-23T01:29:22;8.20;82.90
68924;DHT22;55961;52.156;20.942;2024-02-23T01:31:48;8.20;82.90
68924;DHT22;55961;52.156;20.942;2024-02-23T01:34:15;8.20;83.00
68924;DHT22;55961;52.156;20.942;2024-02-23T01:36:40;8.20;83.10
68924;DHT22;55961;52.156;20.942;2024-02-23T01:39:06;8.20;83.00
68924;DHT22;55961;52.156;20.942;2024-02-23T01:41:33;8.20;83.10
68924;DHT22;55961;52.156;20.942;2024-02-23T01:43:59;8.20;83.30
68924;DHT22;55961;52.156;20.942;2024-02-23T01:46:25;8.20;83.40
68924;DHT22;55961;52.156;20.942;2024-02-23T01:48:51;8.20;83.30
68924;DHT22;55961;52.156;20.942;2024-02-23T01:51:17;8.20;83.40
68924;DHT22;55961;52.156;20.942;2024-02-23T01:53:44;8.20;83.50
68924;DHT22;55961;52.156;20.942;2024-02-23T01:56:13;8.20;83.70
68924;DHT22;55961;52.156;20.942;2024-02-23T01:58:44;8.20;83.80
68924;DHT22;55961;52.156;20.942;2024-02-23T02:01:10;8.20;83.80
68924;DHT22;55961;52.156;20.942;2024-02-23T02:03:39;8.30;83.90
68924;DHT22;55961;52.156;20.942;2024-02-23T02:06:06;8.20;83.90
68924;DHT22;55961;52.156;20.942;2024-02-23T02:08:36;8.20;84.10
68924;DHT22;55961;52.156;20.942;2024-02-23T02:11:03;8.20;84.20
68924;DHT22;55961;52.156;20.942;2024-02-23T02:13:29;8.30;84.20
68924;DHT22;55961;52.156;20.942;2024-02-23T02:16:00;8.20;84.30
68924;DHT22;55961;52.156;20.942;2024-02-23T02:18:27;8.20;84.30
68924;DHT22;55961;52.156;20.942;2024-02-23T02:20:56;8.20;84.40
68924;DHT22;55961;52.156;20.942;2024-02-23T02:23:23;8.20;84.40
68924;DHT22;55961;52.156;20.942;2024-02-23T02:25:56;8.20;84.40
68924;DHT22;55961;52.156;20.942;2024-02-23T02:28:23;8.20;84.60
68924;DHT22;55961;52.156;20.942;2024-02-23T02:30:50;8.20;84.70
68924;DHT22;55961;52.156;20.942;2024-02-23T02:33:16;8.20;84.60
68924;DHT22;55961;52.156;20.942;2024-02-23T02:35:42;8.20;84.60
68924;DHT22;55961;52.156;20.942;2024-02-23T02:38:10;8.20;84.60
68924;DHT22;55961;52.156;20.942;2024-02-23T02:40:36;8.30;84.60
68924;DHT22;55961;52.156;20.942;2024-02-23T02:43:03;8.20;84.70
68924;DHT22;55961;52.156;20.942;2024-02-23T02:45:30;8.30;84.70
68924;DHT22;55961;52.156;20.942;2024-02-23T02:47:56;8.30;84.80
68924;DHT22;55961;52.156;20.942;2024-02-23T02:50:22;8.30;84.80
68924;DHT22;55961;52.156;20.942;2024-02-23T02:52:48;8.20;85.00
68924;DHT22;55961;52.156;20.942;2024-02-23T02:55:14;8.30;84.90
68924;DHT22;55961;52.156;20.942;2024-02-23T02:57:41;8.30;84.90
68924;DHT22;55961;52.156;20.942;2024-02-23T03:00:10;8.30;85.00
68924;DHT22;55961;52.156;20.942;2024-02-23T03:02:36;8.30;85.00
68924;DHT22;55961;52.156;20.942;2024-02-23T03:05:02;8.30;85.10
68924;DHT22;55961;52.156;20.942;2024-02-23T03:07:28;8.30;85.40
68924;DHT22;55961;52.156;20.942;2024-02-23T03:09:54;8.30;86.10
68924;DHT22;55961;52.156;20.942;2024-02-23T03:12:21;8.30;86.90
68924;DHT22;55961;52.156;20.942;2024-02-23T03:14:46;8.30;87.40
68924;DHT22;55961;52.156;20.942;2024-02-23T03:17:14;8.30;87.90
68924;DHT22;55961;52.156;20.942;2024-02-23T03:19:40;8.30;88.60
68924;DHT22;55961;52.156;20.942;2024-02-23T03:22:06;8.30;89.30
68924;DHT22;55961;52.156;20.942;2024-02-23T03:24:32;8.20;89.90
68924;DHT22;55961;52.156;20.942;2024-02-23T03:26:58;8.20;90.30
68924;DHT22;55961;52.156;20.942;2024-02-23T03:29:24;8.20;90.90
68924;DHT22;55961;52.156;20.942;2024-02-23T03:31:50;8.20;91.40
68924;DHT22;55961;52.156;20.942;2024-02-23T03:34:16;8.10;91.70
68924;DHT22;55961;52.156;20.942;2024-02-23T03:36:43;8.10;92.50
68924;DHT22;55961;52.156;20.942;2024-02-23T03:39:09;8.10;92.90
68924;DHT22;55961;52.156;20.942;2024-02-23T03:41:35;8.00;93.10
68924;DHT22;55961;52.156;20.942;2024-02-23T03:44:01;8.00;93.40
68924;DHT22;55961;52.156;20.942;2024-02-23T03:46:27;8.00;94.00
68924;DHT22;55961;52.156;20.942;2024-02-23T03:48:52;7.90;94.20
68924;DHT22;55961;52.156;20.942;2024-02-23T03:51:18;7.90;94.70
68924;DHT22;55961;52.156;20.942;2024-02-23T03:53:44;7.90;94.80
68924;DHT22;55961;52.156;20.942;2024-02-23T03:56:10;7.90;95.40
68924;DHT22;55961;52.156;20.942;2024-02-23T03:58:36;7.90;96.00
68924;DHT22;55961;52.156;20.942;2024-02-23T04:01:02;7.80;95.80
68924;DHT22;55961;52.156;20.942;2024-02-23T04:03:28;7.80;96.40
68924;DHT22;55961;52.156;20.942;2024-02-23T04:05:54;7.80;96.10
68924;DHT22;55961;52.156;20.942;2024-02-23T04:08:20;7.80;96.90
68924;DHT22;55961;52.156;20.942;2024-02-23T04:10:46;7.80;97.40
68924;DHT22;55961;52.156;20.942;2024-02-23T04:13:12;7.80;97.50
68924;DHT22;55961;52.156;20.942;2024-02-23T04:15:40;7.80;97.60
68924;DHT22;55961;52.156;20.942;2024-02-23T04:18:06;7.70;97.90
68924;DHT22;55961;52.156;20.942;2024-02-23T04:20:32;7.70;98.10
68924;DHT22;55961;52.156;20.942;2024-02-23T04:22:58;7.70;98.80
68924;DHT22;55961;52.156;20.942;2024-02-23T04:25:24;7.70;98.80
68924;DHT22;55961;52.156;20.942;2024-02-23T04:27:50;7.70;99.20
68924;DHT22;55961;52.156;20.942;2024-02-23T04:30:16;7.70;99.40
68924;DHT22;55961;52.156;20.942;2024-02-23T04:32:42;7.70;99.90
68924;DHT22;55961;52.156;20.942;2024-02-23T04:35:10;7.60;99.90
68924;DHT22;55961;52.156;20.942;2024-02-23T04:37:36;7.60;99.90
68924;DHT22;55961;52.156;20.942;2024-02-23T04:40:02;7.60;99.90
68924;DHT22;55961;52.156;20.942;2024-02-23T04:42:29;7.60;99.90
68924;DHT22;55961;52.156;20.942;2024-02-23T04:44:56;7.60;99.90
68924;DHT22;55961;52.156;20.942;2024-02-23T04:47:21;7.60;99.90
68924;DHT22;55961;52.156;20.942;2024-02-23T04:49:48;7.60;99.90
68924;DHT22;55961;52.156;20.942;2024-02-23T04:52:15;7.60;99.90
68924;DHT22;55961;52.156;20.942;2024-02-23T04:54:41;7.60;99.90
68924;DHT22;55961;52.156;20.942;2024-02-23T04:57:07;7.60;99.90
68924;DHT22;55961;52.156;20.942;2024-02-23T04:59:33;7.60;99.90
68924;DHT22;55961;52.156;20.942;2024-02-23T05:01:58;7.60;99.90
68924;DHT22;55961;52.156;20.942;2024-02-23T05:04:25;7.60;99.90
68924;DHT22;55961;52.156;20.942;2024-02-23T05:06:52;7.60;99.90
68924;DHT22;55961;52.156;20.942;2024-02-23T05:09:18;7.60;99.90
68924;DHT22;55961;52.156;20.942;2024-02-23T05:11:45;7.50;99.90
68924;DHT22;55961;52.156;20.942;2024-02-23T05:14:13;7.50;99.90
68924;DHT22;55961;52.156;20.942;2024-02-23T05:16:39;7.60;99.90
68924;DHT22;55961;52.156;20.942;2024-02-23T05:19:05;7.60;99.90
68924;DHT22;55961;52.156;20.942;2024-02-23T05:21:31;7.60;99.90
68924;DHT22;55961;52.156;20.942;2024-02-23T05:23:57;7.60;99.90
68924;DHT22;55961;52.156;20.942;2024-02-23T05:26:23;7.50;99.90
68924;DHT22;55961;52.156;20.942;2024-02-23T05:28:49;7.60;99.90
68924;DHT22;55961;52.156;20.942;2024-02-23T05:31:15;7.50;99.90
68924;DHT22;55961;52.156;20.942;2024-02-23T05:33:41;7.50;99.90
68924;DHT22;55961;52.156;20.942;2024-02-23T05:36:07;7.50;99.90
68924;DHT22;55961;52.156;20.942;2024-02-23T05:38:33;7.50;99.90
68924;DHT22;55961;52.156;20.942;2024-02-23T05:40:59;7.60;99.90
68924;DHT22;55961;52.156;20.942;2024-02-23T05:43:25;7.60;99.90
68924;DHT22;55961;52.156;20.942;2024-02-23T05:45:51;7.60;99.90
68924;DHT22;55961;52.156;20.942;2024-02-23T05:48:17;7.50;99.90
68924;DHT22;55961;52.156;20.942;2024-02-23T05:50:44;7.60;99.90
68924;DHT22;55961;52.156;20.942;2024-02-23T05:53:10;7.60;99.90
68924;DHT22;55961;52.156;20.942;2024-02-23T05:55:36;7.50;99.90
68924;DHT22;55961;52.156;20.942;2024-02-23T05:58:02;7.60;99.90
68924;DHT22;55961;52.156;20.942;2024-02-23T06:00:29;7.50;99.90
68924;DHT22;55961;52.156;20.942;2024-02-23T06:02:56;7.60;99.90
68924;DHT22;55961;52.156;20.942;2024-02-23T06:05:22;7.60;99.90
68924;DHT22;55961;52.156;20.942;2024-02-23T06:07:49;7.60;99.90
68924;DHT22;55961;52.156;20.942;2024-02-23T06:10:15;7.60;99.90
68924;DHT22;55961;52.156;20.942;2024-02-23T06:12:41;7.60;99.90
68924;DHT22;55961;52.156;20.942;2024-02-23T06:15:07;7.60;99.90
68924;DHT22;55961;52.156;20.942;2024-02-23T06:17:33;7.60;99.90
68924;DHT22;55961;52.156;20.942;2024-02-23T06:19:59;7.60;99.90
68924;DHT22;55961;52.156;20.942;2024-02-23T06:22:25;7.60;99.90
68924;DHT22;55961;52.156;20.942;2024-02-23T06:24:51;7.60;99.90
68924;DHT22;55961;52.156;20.942;2024-02-23T06:27:17;7.60;99.90
68924;DHT22;55961;52.156;20.942;2024-02-23T06:29:43;7.60;99.90
68924;DHT22;55961;52.156;20.942;2024-02-23T06:32:09;7.70;99.90
68924;DHT22;55961;52.156;20.942;2024-02-23T06:34:35;7.60;99.90
68924;DHT22;55961;52.156;20.942;2024-02-23T06:37:01;7.70;99.90
68924;DHT22;55961;52.156;20.942;2024-02-23T06:39:27;7.70;99.90
68924;DHT22;55961;52.156;20.942;2024-02-23T06:41:53;7.70;99.90
68924;DHT22;55961;52.156;20.942;2024-02-23T06:44:19;7.70;99.90
68924;DHT22;55961;52.156;20.942;2024-02-23T06:46:45;7.70;99.90
68924;DHT22;55961;52.156;20.942;2024-02-23T06:49:11;7.70;99.90
68924;DHT22;55961;52.156;20.942;2024-02-23T06:51:37;7.80;99.90
68924;DHT22;55961;52.156;20.942;2024-02-23T06:54:04;7.80;99.90
68924;DHT22;55961;52.156;20.942;2024-02-23T06:56:30;7.80;99.90
68924;DHT22;55961;52.156;20.942;2024-02-23T06:58:56;7.80;99.90
68924;DHT22;55961;52.156;20.942;2024-02-23T07:01:22;7.80;99.90
68924;DHT22;55961;52.156;20.942;2024-02-23T07:03:48;7.80;99.90
68924;DHT22;55961;52.156;20.942;2024-02-23T07:06:16;7.80;99.90
68924;DHT22;55961;52.156;20.942;2024-02-23T07:08:44;7.80;99.90
68924;DHT22;55961;52.156;20.942;2024-02-23T07:11:11;7.90;99.90
68924;DHT22;55961;52.156;20.942;2024-02-23T07:13:36;7.80;99.90
68924;DHT22;55961;52.156;20.942;2024-02-23T07:16:03;7.80;99.90
68924;DHT22;55961;52.156;20.942;2024-02-23T07:18:29;7.80;99.90
68924;DHT22;55961;52.156;20.942;2024-02-23T07:20:55;7.90;99.90
68924;DHT22;55961;52.156;20.942;2024-02-23T07:23:21;7.90;99.90
68924;DHT22;55961;52.156;20.942;2024-02-23T07:25:48;7.90;99.90
68924;DHT22;55961;52.156;20.942;2024-02-23T07:28:16;7.80;99.90
68924;DHT22;55961;52.156;20.942;2024-02-23T07:30:45;7.90;99.90
68924;DHT22;55961;52.156;20.942;2024-02-23T07:33:12;7.90;99.90
68924;DHT22;55961;52.156;20.942;2024-02-23T07:35:38;7.90;99.90
68924;DHT22;55961;52.156;20.942;2024-02-23T07:38:04;7.90;99.90
68924;DHT22;55961;52.156;20.942;2024-02-23T07:40:30;7.90;99.90
68924;DHT22;55961;52.156;20.942;2024-02-23T07:42:57;8.00;99.90
68924;DHT22;55961;52.156;20.942;2024-02-23T07:45:23;8.00;99.90
68924;DHT22;55961;52.156;20.942;2024-02-23T07:47:49;8.00;99.90
68924;DHT22;55961;52.156;20.942;2024-02-23T07:50:15;8.00;99.90
68924;DHT22;55961;52.156;20.942;2024-02-23T07:52:41;8.10;99.90
68924;DHT22;55961;52.156;20.942;2024-02-23T07:55:07;8.00;99.90
68924;DHT22;55961;52.156;20.942;2024-02-23T07:57:33;8.10;99.90
68924;DHT22;55961;52.156;20.942;2024-02-23T08:00:00;8.10;99.90
68924;DHT22;55961;52.156;20.942;2024-02-23T08:02:26;8.10;99.90
68924;DHT22;55961;52.156;20.942;2024-02-23T08:04:52;8.10;99.90
68924;DHT22;55961;52.156;20.942;2024-02-23T08:07:18;8.10;99.90
68924;DHT22;55961;52.156;20.942;2024-02-23T08:09:44;8.20;99.90
68924;DHT22;55961;52.156;20.942;2024-02-23T08:12:10;8.10;99.90
68924;DHT22;55961;52.156;20.942;2024-02-23T08:14:39;8.20;99.90
68924;DHT22;55961;52.156;20.942;2024-02-23T08:17:05;8.20;99.90
68924;DHT22;55961;52.156;20.942;2024-02-23T08:19:31;8.20;99.90
68924;DHT22;55961;52.156;20.942;2024-02-23T08:21:57;8.20;99.90
68924;DHT22;55961;52.156;20.942;2024-02-23T08:24:23;8.20;99.90
68924;DHT22;55961;52.156;20.942;2024-02-23T08:26:49;8.20;99.90
68924;DHT22;55961;52.156;20.942;2024-02-23T08:29:15;8.20;99.90
68924;DHT22;55961;52.156;20.942;2024-02-23T08:31:41;8.30;99.90
68924;DHT22;55961;52.156;20.942;2024-02-23T08:34:07;8.30;99.90
68924;DHT22;55961;52.156;20.942;2024-02-23T08:36:32;8.30;99.90
68924;DHT22;55961;52.156;20.942;2024-02-23T08:38:59;8.30;99.90
68924;DHT22;55961;52.156;20.942;2024-02-23T08:41:24;8.30;99.90
68924;DHT22;55961;52.156;20.942;2024-02-23T08:43:50;8.30;99.90
68924;DHT22;55961;52.156;20.942;2024-02-23T08:46:16;8.30;99.90
68924;DHT22;55961;52.156;20.942;2024-02-23T08:48:42;8.40;99.90
68924;DHT22;55961;52.156;20.942;2024-02-23T08:51:08;8.40;99.90
68924;DHT22;55961;52.156;20.942;2024-02-23T08:53:34;8.40;99.90
68924;DHT22;55961;52.156;20.942;2024-02-23T08:56:00;8.50;99.90
68924;DHT22;55961;52.156;20.942;2024-02-23T08:58:26;8.50;99.90
68924;DHT22;55961;52.156;20.942;2024-02-23T09:00:52;8.50;99.90
68924;DHT22;55961;52.156;20.942;2024-02-23T09:03:18;8.50;99.90
68924;DHT22;55961;52.156;20.942;2024-02-23T09:05:44;8.60;99.90
68924;DHT22;55961;52.156;20.942;2024-02-23T09:08:12;8.50;99.90
68924;DHT22;55961;52.156;20.942;2024-02-23T09:10:38;8.60;99.90
68924;DHT22;55961;52.156;20.942;2024-02-23T09:13:04;8.60;99.90
68924;DHT22;55961;52.156;20.942;2024-02-23T09:15:31;8.70;99.90
68924;DHT22;55961;52.156;20.942;2024-02-23T09:17:57;8.70;99.90
68924;DHT22;55961;52.156;20.942;2024-02-23T09:20:23;8.70;99.90
68924;DHT22;55961;52.156;20.942;2024-02-23T09:22:49;8.70;99.90
68924;DHT22;55961;52.156;20.942;2024-02-23T09:25:15;8.80;99.90
68924;DHT22;55961;52.156;20.942;2024-02-23T09:27:40;8.80;99.90
68924;DHT22;55961;52.156;20.942;2024-02-23T09:30:11;8.80;99.90
68924;DHT22;55961;52.156;20.942;2024-02-23T09:32:37;8.90;99.90
68924;DHT22;55961;52.156;20.942;2024-02-23T09:35:03;8.90;99.90
68924;DHT22;55961;52.156;20.942;2024-02-23T09:37:30;8.90;99.90
68924;DHT22;55961;52.156;20.942;2024-02-23T09:39:56;9.00;99.90
68924;DHT22;55961;52.156;20.942;2024-02-23T09:42:23;9.00;99.90
68924;DHT22;55961;52.156;20.942;2024-02-23T09:44:59;9.10;99.90
68924;DHT22;55961;52.156;20.942;2024-02-23T09:47:27;9.10;99.90
68924;DHT22;55961;52.156;20.942;2024-02-23T09:49:54;9.20;99.90
68924;DHT22;55961;52.156;20.942;2024-02-23T09:52:21;9.20;99.90
68924;DHT22;55961;52.156;20.942;2024-02-23T09:54:48;9.20;99.90
68924;DHT22;55961;52.156;20.942;2024-02-23T09:57:15;9.20;99.90
68924;DHT22;55961;52.156;20.942;2024-02-23T09:59:41;9.20;99.90
68924;DHT22;55961;52.156;20.942;2024-02-23T10:02:09;9.30;99.90
68924;DHT22;55961;52.156;20.942;2024-02-23T10:04:36;9.30;99.90
68924;DHT22;55961;52.156;20.942;2024-02-23T10:07:02;9.30;99.90
68924;DHT22;55961;52.156;20.942;2024-02-23T10:09:30;9.30;99.90
68924;DHT22;55961;52.156;20.942;2024-02-23T10:11:56;9.30;99.90
68924;DHT22;55961;52.156;20.942;2024-02-23T10:14:23;9.30;99.90
68924;DHT22;55961;52.156;20.942;2024-02-23T10:16:48;9.40;99.90
68924;DHT22;55961;52.156;20.942;2024-02-23T10:19:19;9.40;99.90
68924;DHT22;55961;52.156;20.942;2024-02-23T10:21:46;9.40;99.90
68924;DHT22;55961;52.156;20.942;2024-02-23T10:24:12;9.50;99.90
68924;DHT22;55961;52.156;20.942;2024-02-23T10:26:38;9.50;99.90
68924;DHT22;55961;52.156;20.942;2024-02-23T10:29:04;9.50;99.90
68924;DHT22;55961;52.156;20.942;2024-02-23T10:31:35;9.50;99.90
68924;DHT22;55961;52.156;20.942;2024-02-23T10:34:08;9.50;99.90
68924;DHT22;55961;52.156;20.942;2024-02-23T10:36:42;9.50;99.90
68924;DHT22;55961;52.156;20.942;2024-02-23T10:39:09;9.50;99.90
68924;DHT22;55961;52.156;20.942;2024-02-23T10:41:35;9.60;99.90
68924;DHT22;55961;52.156;20.942;2024-02-23T10:44:05;9.50;99.90
68924;DHT22;55961;52.156;20.942;2024-02-23T10:46:32;9.60;99.90
68924;DHT22;55961;52.156;20.942;2024-02-23T10:48:59;9.50;99.90
68924;DHT22;55961;52.156;20.942;2024-02-23T10:51:25;9.50;99.90
68924;DHT22;55961;52.156;20.942;2024-02-23T10:53:52;9.50;99.90
68924;DHT22;55961;52.156;20.942;2024-02-23T10:56:18;9.50;99.90
68924;DHT22;55961;52.156;20.942;2024-02-23T10:58:45;9.60;99.90
68924;DHT22;55961;52.156;20.942;2024-02-23T11:01:12;9.60;99.90
68924;DHT22;55961;52.156;20.942;2024-02-23T11:03:42;9.50;99.90
68924;DHT22;55961;52.156;20.942;2024-02-23T11:06:10;9.60;99.90
68924;DHT22;55961;52.156;20.942;2024-02-23T11:08:37;9.60;99.90
68924;DHT22;55961;52.156;20.942;2024-02-23T11:11:10;9.60;99.90
68924;DHT22;55961;52.156;20.942;2024-02-23T11:13:38;9.60;99.90
68924;DHT22;55961;52.156;20.942;2024-02-23T11:16:04;9.60;99.90
68924;DHT22;55961;52.156;20.942;2024-02-23T11:18:31;9.60;99.90
68924;DHT22;55961;52.156;20.942;2024-02-23T11:21:01;9.60;99.90
68924;DHT22;55961;52.156;20.942;2024-02-23T11:23:47;9.60;99.90
68924;DHT22;55961;52.156;20.942;2024-02-23T11:26:16;9.60;99.90
68924;DHT22;55961;52.156;20.942;2024-02-23T11:28:49;9.60;99.90
68924;DHT22;55961;52.156;20.942;2024-02-23T11:31:22;9.60;99.90
68924;DHT22;55961;52.156;20.942;2024-02-23T11:33:50;9.60;99.90
68924;DHT22;55961;52.156;20.942;2024-02-23T11:38:53;9.70;99.90
68924;DHT22;55961;52.156;20.942;2024-02-23T11:41:22;9.70;99.90
68924;DHT22;55961;52.156;20.942;2024-02-23T11:43:52;9.70;99.90
68924;DHT22;55961;52.156;20.942;2024-02-23T11:46:19;9.70;99.90
68924;DHT22;55961;52.156;20.942;2024-02-23T11:48:46;9.70;99.90
68924;DHT22;55961;52.156;20.942;2024-02-23T11:51:13;9.70;99.90
68924;DHT22;55961;52.156;20.942;2024-02-23T11:53:40;9.70;99.90
68924;DHT22;55961;52.156;20.942;2024-02-23T11:56:06;9.80;99.90
68924;DHT22;55961;52.156;20.942;2024-02-23T11:58:33;9.80;99.90
68924;DHT22;55961;52.156;20.942;2024-02-23T12:01:03;9.80;99.90
68924;DHT22;55961;52.156;20.942;2024-02-23T12:03:29;9.80;99.90
68924;DHT22;55961;52.156;20.942;2024-02-23T12:06:02;9.80;99.90
68924;DHT22;55961;52.156;20.942;2024-02-23T12:08:30;9.80;99.90
68924;DHT22;55961;52.156;20.942;2024-02-23T12:11:04;9.80;99.90
68924;DHT22;55961;52.156;20.942;2024-02-23T12:13:31;9.90;99.90
68924;DHT22;55961;52.156;20.942;2024-02-23T12:15:57;9.90;99.90
68924;DHT22;55961;52.156;20.942;2024-02-23T12:18:24;9.90;99.90
68924;DHT22;55961;52.156;20.942;2024-02-23T12:20:52;9.90;99.90
68924;DHT22;55961;52.156;20.942;2024-02-23T12:23:18;10.00;99.90
68924;DHT22;55961;52.156;20.942;2024-02-23T12:25:54;10.00;99.90
68924;DHT22;55961;52.156;20.942;2024-02-23T12:28:23;10.00;99.90
68924;DHT22;55961;52.156;20.942;2024-02-23T12:31:02;10.00;99.90
68924;DHT22;55961;52.156;20.942;2024-02-23T12:33:30;10.00;99.90
68924;DHT22;55961;52.156;20.942;2024-02-23T12:35:58;10.10;99.90
68924;DHT22;55961;52.156;20.942;2024-02-23T12:38:25;10.10;99.90
68924;DHT22;55961;52.156;20.942;2024-02-23T12:40:51;10.10;99.90
68924;DHT22;55961;52.156;20.942;2024-02-23T12:43:18;10.10;99.90
68924;DHT22;55961;52.156;20.942;2024-02-23T12:45:47;10.20;99.90
68924;DHT22;55961;52.156;20.942;2024-02-23T12:48:18;10.20;99.90
68924;DHT22;55961;52.156;20.942;2024-02-23T12:50:44;10.20;99.90
68924;DHT22;55961;52.156;20.942;2024-02-23T12:56:02;10.20;99.90
68924;DHT22;55961;52.156;20.942;2024-02-23T12:58:28;10.20;99.90
68924;DHT22;55961;52.156;20.942;2024-02-23T13:00:55;10.20;99.90
68924;DHT22;55961;52.156;20.942;2024-02-23T13:03:21;10.30;99.90
68924;DHT22;55961;52.156;20.942;2024-02-23T13:05:47;10.30;99.90
68924;DHT22;55961;52.156;20.942;2024-02-23T13:08:14;10.30;99.90
68924;DHT22;55961;52.156;20.942;2024-02-23T13:10:39;10.30;99.90
68924;DHT22;55961;52.156;20.942;2024-02-23T13:13:06;10.30;99.90
68924;DHT22;55961;52.156;20.942;2024-02-23T13:15:31;10.30;99.90
68924;DHT22;55961;52.156;20.942;2024-02-23T13:17:57;10.30;99.90
68924;DHT22;55961;52.156;20.942;2024-02-23T13:20:23;10.30;99.90
68924;DHT22;55961;52.156;20.942;2024-02-23T13:22:50;10.30;99.90
68924;DHT22;55961;52.156;20.942;2024-02-23T13:25:16;10.30;99.90
68924;DHT22;55961;52.156;20.942;2024-02-23T13:27:42;10.30;99.90
68924;DHT22;55961;52.156;20.942;2024-02-23T13:30:08;10.30;99.90
68924;DHT22;55961;52.156;20.942;2024-02-23T13:32:34;10.20;99.90
68924;DHT22;55961;52.156;20.942;2024-02-23T13:35:00;10.30;99.90
68924;DHT22;55961;52.156;20.942;2024-02-23T13:37:30;10.20;99.90
68924;DHT22;55961;52.156;20.942;2024-02-23T13:39:55;10.20;99.90
68924;DHT22;55961;52.156;20.942;2024-02-23T13:42:22;10.20;99.90
68924;DHT22;55961;52.156;20.942;2024-02-23T13:44:48;10.20;99.90
68924;DHT22;55961;52.156;20.942;2024-02-23T13:47:14;10.20;99.90
68924;DHT22;55961;52.156;20.942;2024-02-23T13:49:39;10.20;99.90
68924;DHT22;55961;52.156;20.942;2024-02-23T13:52:06;10.20;99.90
68924;DHT22;55961;52.156;20.942;2024-02-23T13:54:31;10.20;99.90
68924;DHT22;55961;52.156;20.942;2024-02-23T13:56:58;10.20;99.90
68924;DHT22;55961;52.156;20.942;2024-02-23T13:59:23;10.20;99.90
68924;DHT22;55961;52.156;20.942;2024-02-23T14:01:49;10.20;99.90
68924;DHT22;55961;52.156;20.942;2024-02-23T14:04:16;10.20;99.90
68924;DHT22;55961;52.156;20.942;2024-02-23T14:06:42;10.20;99.90
68924;DHT22;55961;52.156;20.942;2024-02-23T14:09:09;10.20;99.90
68924;DHT22;55961;52.156;20.942;2024-02-23T14:11:35;10.20;99.90
68924;DHT22;55961;52.156;20.942;2024-02-23T14:14:01;10.20;99.90
68924;DHT22;55961;52.156;20.942;2024-02-23T14:16:29;10.20;99.90
68924;DHT22;55961;52.156;20.942;2024-02-23T14:18:54;10.20;99.90
68924;DHT22;55961;52.156;20.942;2024-02-23T14:21:21;10.20;99.90
68924;DHT22;55961;52.156;20.942;2024-02-23T14:23:48;10.20;99.90
68924;DHT22;55961;52.156;20.942;2024-02-23T14:26:14;10.20;99.90
68924;DHT22;55961;52.156;20.942;2024-02-23T14:28:40;10.20;99.90
68924;DHT22;55961;52.156;20.942;2024-02-23T14:31:06;10.20;99.90
68924;DHT22;55961;52.156;20.942;2024-02-23T14:33:32;10.20;99.90
68924;DHT22;55961;52.156;20.942;2024-02-23T14:35:58;10.20;99.90
68924;DHT22;55961;52.156;20.942;2024-02-23T14:38:24;10.20;99.90
68924;DHT22;55961;52.156;20.942;2024-02-23T14:40:51;10.20;99.90
68924;DHT22;55961;52.156;20.942;2024-02-23T14:43:17;10.20;99.90
68924;DHT22;55961;52.156;20.942;2024-02-23T14:45:43;10.20;99.90
68924;DHT22;55961;52.156;20.942;2024-02-23T14:48:09;10.20;99.90
68924;DHT22;55961;52.156;20.942;2024-02-23T14:50:35;10.10;99.90
68924;DHT22;55961;52.156;20.942;2024-02-23T14:53:01;10.10;99.90
68924;DHT22;55961;52.156;20.942;2024-02-23T14:55:28;10.10;99.90
68924;DHT22;55961;52.156;20.942;2024-02-23T14:57:54;10.10;99.90
68924;DHT22;55961;52.156;20.942;2024-02-23T15:00:20;10.10;99.90
68924;DHT22;55961;52.156;20.942;2024-02-23T15:02:46;10.10;99.90
68924;DHT22;55961;52.156;20.942;2024-02-23T15:05:13;10.10;99.90
68924;DHT22;55961;52.156;20.942;2024-02-23T15:07:39;10.10;99.90
68924;DHT22;55961;52.156;20.942;2024-02-23T15:10:05;10.10;99.90
68924;DHT22;55961;52.156;20.942;2024-02-23T15:12:34;10.10;99.90
68924;DHT22;55961;52.156;20.942;2024-02-23T15:15:01;10.20;99.90
68924;DHT22;55961;52.156;20.942;2024-02-23T15:17:27;10.10;99.90
68924;DHT22;55961;52.156;20.942;2024-02-23T15:19:53;10.20;99.90
68924;DHT22;55961;52.156;20.942;2024-02-23T15:22:19;10.10;99.90
68924;DHT22;55961;52.156;20.942;2024-02-23T15:24:45;10.20;99.90
68924;DHT22;55961;52.156;20.942;2024-02-23T15:27:18;10.20;99.90
68924;DHT22;55961;52.156;20.942;2024-02-23T15:29:45;10.20;99.90